sensor_id;sensor_type;location;lat;lon;timestamp;P1;durP1;ratioP1;P2;durP2;ratioP2
1360;SDS011;674;45.552;-122.600;2022-08-21T00:00:36;4.40;;;2.70;;
1360;SDS011;674;45.552;-122.600;2022-08-21T00:03:10;4.87;;;2.40;;
1360;SDS011;674;45.552;-122.600;2022-08-21T00:05:45;3.83;;;2.60;;
1360;SDS011;674;45.552;-122.600;2022-08-21T00:08:18;4.60;;;2.47;;
1360;SDS011;674;45.552;-122.600;2022-08-21T00:10:48;4.43;;;2.70;;
1360;SDS011;674;45.552;-122.600;2022-08-21T00:13:17;2.83;;;2.40;;
1360;SDS011;674;45.552;-122.600;2022-08-21T00:15:47;2.70;;;2.50;;
1360;SDS011;674;45.552;-122.600;2022-08-21T00:18:17;2.97;;;2.60;;
1360;SDS011;674;45.552;-122.600;2022-08-21T00:20:46;3.17;;;2.33;;
1360;SDS011;674;45.552;-122.600;2022-08-21T00:23:15;3.20;;;2.30;;
1360;SDS011;674;45.552;-122.600;2022-08-21T00:25:44;3.40;;;2.47;;
1360;SDS011;674;45.552;-122.600;2022-08-21T00:28:12;4.00;;;3.60;;
1360;SDS011;674;45.552;-122.600;2022-08-21T00:30:42;3.23;;;2.80;;
1360;SDS011;674;45.552;-122.600;2022-08-21T00:33:11;4.17;;;2.80;;
1360;SDS011;674;45.552;-122.600;2022-08-21T00:35:41;3.63;;;2.60;;
1360;SDS011;674;45.552;-122.600;2022-08-21T00:38:10;2.83;;;2.60;;
1360;SDS011;674;45.552;-122.600;2022-08-21T00:40:46;3.73;;;2.13;;
1360;SDS011;674;45.552;-122.600;2022-08-21T00:43:23;2.60;;;2.37;;
1360;SDS011;674;45.552;-122.600;2022-08-21T00:45:55;2.67;;;2.43;;
1360;SDS011;674;45.552;-122.600;2022-08-21T00:48:24;3.07;;;2.50;;
1360;SDS011;674;45.552;-122.600;2022-08-21T00:51:13;3.83;;;2.40;;
1360;SDS011;674;45.552;-122.600;2022-08-21T00:53:53;2.67;;;2.33;;
1360;SDS011;674;45.552;-122.600;2022-08-21T00:56:24;3.23;;;2.30;;
1360;SDS011;674;45.552;-122.600;2022-08-21T00:58:53;2.63;;;2.37;;
1360;SDS011;674;45.552;-122.600;2022-08-21T01:01:23;4.10;;;2.40;;
1360;SDS011;674;45.552;-122.600;2022-08-21T01:03:52;2.80;;;2.53;;
1360;SDS011;674;45.552;-122.600;2022-08-21T01:06:21;2.30;;;2.10;;
1360;SDS011;674;45.552;-122.600;2022-08-21T01:08:49;2.67;;;2.33;;
1360;SDS011;674;45.552;-122.600;2022-08-21T01:11:18;3.40;;;2.13;;
1360;SDS011;674;45.552;-122.600;2022-08-21T01:13:48;3.17;;;2.37;;
1360;SDS011;674;45.552;-122.600;2022-08-21T01:16:19;3.90;;;2.00;;
1360;SDS011;674;45.552;-122.600;2022-08-21T01:18:49;4.93;;;2.63;;
1360;SDS011;674;45.552;-122.600;2022-08-21T01:21:20;3.00;;;2.07;;
1360;SDS011;674;45.552;-122.600;2022-08-21T01:23:55;2.60;;;2.00;;
1360;SDS011;674;45.552;-122.600;2022-08-21T01:26:27;3.43;;;1.83;;
1360;SDS011;674;45.552;-122.600;2022-08-21T01:29:12;2.10;;;1.90;;
1360;SDS011;674;45.552;-122.600;2022-08-21T01:31:55;2.23;;;1.90;;
1360;SDS011;674;45.552;-122.600;2022-08-21T01:34:23;2.10;;;1.90;;
1360;SDS011;674;45.552;-122.600;2022-08-21T01:36:52;3.70;;;2.10;;
1360;SDS011;674;45.552;-122.600;2022-08-21T01:39:20;2.67;;;1.90;;
1360;SDS011;674;45.552;-122.600;2022-08-21T01:41:49;2.30;;;1.80;;
1360;SDS011;674;45.552;-122.600;2022-08-21T01:44:20;2.30;;;1.90;;
1360;SDS011;674;45.552;-122.600;2022-08-21T01:46:49;2.80;;;2.50;;
1360;SDS011;674;45.552;-122.600;2022-08-21T01:49:19;5.97;;;1.90;;
1360;SDS011;674;45.552;-122.600;2022-08-21T01:51:48;2.80;;;1.70;;
1360;SDS011;674;45.552;-122.600;2022-08-21T01:54:16;3.07;;;1.80;;
1360;SDS011;674;45.552;-122.600;2022-08-21T01:56:46;4.97;;;1.90;;
1360;SDS011;674;45.552;-122.600;2022-08-21T01:59:17;4.20;;;1.83;;
1360;SDS011;674;45.552;-122.600;2022-08-21T02:01:46;2.30;;;2.10;;
1360;SDS011;674;45.552;-122.600;2022-08-21T02:04:14;2.23;;;1.80;;
1360;SDS011;674;45.552;-122.600;2022-08-21T02:06:43;2.30;;;1.93;;
1360;SDS011;674;45.552;-122.600;2022-08-21T02:09:11;3.30;;;1.77;;
1360;SDS011;674;45.552;-122.600;2022-08-21T02:11:42;4.13;;;2.00;;
1360;SDS011;674;45.552;-122.600;2022-08-21T02:14:11;2.57;;;1.80;;
1360;SDS011;674;45.552;-122.600;2022-08-21T02:16:57;2.33;;;1.50;;
1360;SDS011;674;45.552;-122.600;2022-08-21T02:19:31;2.43;;;1.70;;
1360;SDS011;674;45.552;-122.600;2022-08-21T02:22:06;2.90;;;1.63;;
1360;SDS011;674;45.552;-122.600;2022-08-21T02:24:36;2.30;;;2.10;;
1360;SDS011;674;45.552;-122.600;2022-08-21T02:27:20;3.53;;;1.77;;
1360;SDS011;674;45.552;-122.600;2022-08-21T02:29:52;2.97;;;1.83;;
1360;SDS011;674;45.552;-122.600;2022-08-21T02:32:22;3.33;;;2.00;;
1360;SDS011;674;45.552;-122.600;2022-08-21T02:34:52;2.00;;;1.60;;
1360;SDS011;674;45.552;-122.600;2022-08-21T02:37:21;1.90;;;1.60;;
1360;SDS011;674;45.552;-122.600;2022-08-21T02:39:50;2.20;;;1.60;;
1360;SDS011;674;45.552;-122.600;2022-08-21T02:42:19;2.53;;;1.80;;
1360;SDS011;674;45.552;-122.600;2022-08-21T02:44:47;2.03;;;1.60;;
1360;SDS011;674;45.552;-122.600;2022-08-21T02:47:16;2.90;;;1.80;;
1360;SDS011;674;45.552;-122.600;2022-08-21T02:49:44;6.03;;;1.90;;
1360;SDS011;674;45.552;-122.600;2022-08-21T02:52:13;2.57;;;1.90;;
1360;SDS011;674;45.552;-122.600;2022-08-21T02:54:41;3.90;;;2.30;;
1360;SDS011;674;45.552;-122.600;2022-08-21T02:57:10;4.43;;;2.57;;
1360;SDS011;674;45.552;-122.600;2022-08-21T02:59:38;3.30;;;2.17;;
1360;SDS011;674;45.552;-122.600;2022-08-21T03:02:08;5.80;;;2.90;;
1360;SDS011;674;45.552;-122.600;2022-08-21T03:04:36;5.83;;;2.57;;
1360;SDS011;674;45.552;-122.600;2022-08-21T03:07:09;9.03;;;2.57;;
1360;SDS011;674;45.552;-122.600;2022-08-21T03:09:38;5.53;;;2.30;;
1360;SDS011;674;45.552;-122.600;2022-08-21T03:12:21;5.70;;;2.90;;
1360;SDS011;674;45.552;-122.600;2022-08-21T03:14:55;6.67;;;3.67;;
1360;SDS011;674;45.552;-122.600;2022-08-21T03:17:25;6.10;;;3.00;;
1360;SDS011;674;45.552;-122.600;2022-08-21T03:19:55;9.30;;;3.00;;
1360;SDS011;674;45.552;-122.600;2022-08-21T03:22:24;4.77;;;2.83;;
1360;SDS011;674;45.552;-122.600;2022-08-21T03:24:56;5.37;;;2.43;;
1360;SDS011;674;45.552;-122.600;2022-08-21T03:27:30;5.47;;;2.77;;
1360;SDS011;674;45.552;-122.600;2022-08-21T03:29:59;3.63;;;2.07;;
1360;SDS011;674;45.552;-122.600;2022-08-21T03:32:30;3.60;;;2.63;;
1360;SDS011;674;45.552;-122.600;2022-08-21T03:34:59;4.10;;;3.10;;
1360;SDS011;674;45.552;-122.600;2022-08-21T03:37:29;3.93;;;2.47;;
1360;SDS011;674;45.552;-122.600;2022-08-21T03:39:57;3.63;;;2.60;;
1360;SDS011;674;45.552;-122.600;2022-08-21T03:42:26;2.40;;;2.20;;
1360;SDS011;674;45.552;-122.600;2022-08-21T03:44:54;3.10;;;2.57;;
1360;SDS011;674;45.552;-122.600;2022-08-21T03:47:23;6.03;;;2.50;;
1360;SDS011;674;45.552;-122.600;2022-08-21T03:49:51;4.10;;;2.60;;
1360;SDS011;674;45.552;-122.600;2022-08-21T03:52:20;2.53;;;2.20;;
1360;SDS011;674;45.552;-122.600;2022-08-21T03:54:48;4.33;;;2.33;;
1360;SDS011;674;45.552;-122.600;2022-08-21T03:57:17;4.23;;;2.47;;
1360;SDS011;674;45.552;-122.600;2022-08-21T03:59:46;4.40;;;2.60;;
1360;SDS011;674;45.552;-122.600;2022-08-21T04:02:15;2.87;;;2.40;;
1360;SDS011;674;45.552;-122.600;2022-08-21T04:04:46;6.57;;;2.30;;
1360;SDS011;674;45.552;-122.600;2022-08-21T04:07:14;2.93;;;2.30;;
1360;SDS011;674;45.552;-122.600;2022-08-21T04:09:43;3.60;;;2.50;;
1360;SDS011;674;45.552;-122.600;2022-08-21T04:12:11;3.23;;;2.23;;
1360;SDS011;674;45.552;-122.600;2022-08-21T04:14:40;3.00;;;2.57;;
1360;SDS011;674;45.552;-122.600;2022-08-21T04:17:09;3.43;;;2.30;;
1360;SDS011;674;45.552;-122.600;2022-08-21T04:19:37;2.73;;;2.43;;
1360;SDS011;674;45.552;-122.600;2022-08-21T04:22:05;2.77;;;2.43;;
1360;SDS011;674;45.552;-122.600;2022-08-21T04:24:34;3.10;;;2.53;;
1360;SDS011;674;45.552;-122.600;2022-08-21T04:27:02;2.50;;;1.87;;
1360;SDS011;674;45.552;-122.600;2022-08-21T04:29:31;4.30;;;2.00;;
1360;SDS011;674;45.552;-122.600;2022-08-21T04:32:05;2.60;;;2.00;;
1360;SDS011;674;45.552;-122.600;2022-08-21T04:34:33;2.77;;;2.20;;
1360;SDS011;674;45.552;-122.600;2022-08-21T04:37:02;3.07;;;2.40;;
1360;SDS011;674;45.552;-122.600;2022-08-21T04:39:31;3.03;;;2.30;;
1360;SDS011;674;45.552;-122.600;2022-08-21T04:41:59;2.53;;;2.07;;
1360;SDS011;674;45.552;-122.600;2022-08-21T04:44:28;2.10;;;1.90;;
1360;SDS011;674;45.552;-122.600;2022-08-21T04:46:56;2.60;;;2.30;;
1360;SDS011;674;45.552;-122.600;2022-08-21T04:49:26;2.87;;;2.20;;
1360;SDS011;674;45.552;-122.600;2022-08-21T04:51:54;3.00;;;2.10;;
1360;SDS011;674;45.552;-122.600;2022-08-21T04:54:23;2.47;;;1.80;;
1360;SDS011;674;45.552;-122.600;2022-08-21T04:56:56;3.17;;;2.27;;
1360;SDS011;674;45.552;-122.600;2022-08-21T04:59:31;3.00;;;2.33;;
1360;SDS011;674;45.552;-122.600;2022-08-21T05:02:04;3.77;;;1.90;;
1360;SDS011;674;45.552;-122.600;2022-08-21T05:04:34;2.67;;;2.13;;
1360;SDS011;674;45.552;-122.600;2022-08-21T05:07:07;2.87;;;2.30;;
1360;SDS011;674;45.552;-122.600;2022-08-21T05:10:02;2.60;;;1.90;;
1360;SDS011;674;45.552;-122.600;2022-08-21T05:12:31;2.60;;;2.10;;
1360;SDS011;674;45.552;-122.600;2022-08-21T05:15:02;2.80;;;2.30;;
1360;SDS011;674;45.552;-122.600;2022-08-21T05:17:31;2.90;;;2.30;;
1360;SDS011;674;45.552;-122.600;2022-08-21T05:19:59;3.37;;;2.00;;
1360;SDS011;674;45.552;-122.600;2022-08-21T05:22:29;3.50;;;2.40;;
1360;SDS011;674;45.552;-122.600;2022-08-21T05:24:57;2.30;;;2.00;;
1360;SDS011;674;45.552;-122.600;2022-08-21T05:27:26;2.70;;;2.20;;
1360;SDS011;674;45.552;-122.600;2022-08-21T05:29:57;2.30;;;2.10;;
1360;SDS011;674;45.552;-122.600;2022-08-21T05:32:25;3.70;;;2.30;;
1360;SDS011;674;45.552;-122.600;2022-08-21T05:34:55;3.20;;;2.67;;
1360;SDS011;674;45.552;-122.600;2022-08-21T05:37:24;3.50;;;2.07;;
1360;SDS011;674;45.552;-122.600;2022-08-21T05:39:52;2.37;;;2.00;;
1360;SDS011;674;45.552;-122.600;2022-08-21T05:42:40;3.83;;;2.00;;
1360;SDS011;674;45.552;-122.600;2022-08-21T05:45:09;4.50;;;2.40;;
1360;SDS011;674;45.552;-122.600;2022-08-21T05:47:38;2.47;;;1.67;;
1360;SDS011;674;45.552;-122.600;2022-08-21T05:50:08;2.10;;;1.83;;
1360;SDS011;674;45.552;-122.600;2022-08-21T05:52:37;2.60;;;1.70;;
1360;SDS011;674;45.552;-122.600;2022-08-21T05:55:05;2.03;;;1.70;;
1360;SDS011;674;45.552;-122.600;2022-08-21T05:57:34;2.20;;;1.97;;
1360;SDS011;674;45.552;-122.600;2022-08-21T06:00:03;5.17;;;2.10;;
1360;SDS011;674;45.552;-122.600;2022-08-21T06:02:32;2.57;;;1.93;;
1360;SDS011;674;45.552;-122.600;2022-08-21T06:05:00;2.20;;;1.97;;
1360;SDS011;674;45.552;-122.600;2022-08-21T06:07:29;2.70;;;1.87;;
1360;SDS011;674;45.552;-122.600;2022-08-21T06:09:57;2.77;;;1.93;;
1360;SDS011;674;45.552;-122.600;2022-08-21T06:12:26;2.37;;;1.90;;
1360;SDS011;674;45.552;-122.600;2022-08-21T06:14:54;2.30;;;1.77;;
1360;SDS011;674;45.552;-122.600;2022-08-21T06:17:23;1.97;;;1.53;;
1360;SDS011;674;45.552;-122.600;2022-08-21T06:19:52;2.50;;;1.70;;
1360;SDS011;674;45.552;-122.600;2022-08-21T06:22:21;2.30;;;1.77;;
1360;SDS011;674;45.552;-122.600;2022-08-21T06:24:50;2.10;;;1.63;;
1360;SDS011;674;45.552;-122.600;2022-08-21T06:27:19;5.07;;;2.17;;
1360;SDS011;674;45.552;-122.600;2022-08-21T06:29:52;2.53;;;2.00;;
1360;SDS011;674;45.552;-122.600;2022-08-21T06:32:20;2.50;;;1.87;;
1360;SDS011;674;45.552;-122.600;2022-08-21T06:34:48;3.37;;;2.07;;
1360;SDS011;674;45.552;-122.600;2022-08-21T06:37:17;2.53;;;2.10;;
1360;SDS011;674;45.552;-122.600;2022-08-21T06:39:45;3.07;;;2.10;;
1360;SDS011;674;45.552;-122.600;2022-08-21T06:42:15;2.77;;;2.17;;
1360;SDS011;674;45.552;-122.600;2022-08-21T06:44:45;2.20;;;2.00;;
1360;SDS011;674;45.552;-122.600;2022-08-21T06:47:13;3.50;;;2.53;;
1360;SDS011;674;45.552;-122.600;2022-08-21T06:49:42;5.10;;;2.43;;
1360;SDS011;674;45.552;-122.600;2022-08-21T06:52:11;2.43;;;2.07;;
1360;SDS011;674;45.552;-122.600;2022-08-21T06:54:41;2.87;;;2.40;;
1360;SDS011;674;45.552;-122.600;2022-08-21T06:57:09;2.73;;;2.40;;
1360;SDS011;674;45.552;-122.600;2022-08-21T06:59:38;2.73;;;2.20;;
1360;SDS011;674;45.552;-122.600;2022-08-21T07:02:06;3.10;;;2.13;;
1360;SDS011;674;45.552;-122.600;2022-08-21T07:04:35;2.87;;;2.27;;
1360;SDS011;674;45.552;-122.600;2022-08-21T07:07:03;2.47;;;2.10;;
1360;SDS011;674;45.552;-122.600;2022-08-21T07:09:32;3.03;;;2.63;;
1360;SDS011;674;45.552;-122.600;2022-08-21T07:12:01;4.53;;;3.20;;
1360;SDS011;674;45.552;-122.600;2022-08-21T07:14:31;3.20;;;2.87;;
1360;SDS011;674;45.552;-122.600;2022-08-21T07:17:00;2.33;;;2.07;;
1360;SDS011;674;45.552;-122.600;2022-08-21T07:19:29;3.37;;;2.43;;
1360;SDS011;674;45.552;-122.600;2022-08-21T07:21:58;5.87;;;2.00;;
1360;SDS011;674;45.552;-122.600;2022-08-21T07:24:29;2.63;;;2.10;;
1360;SDS011;674;45.552;-122.600;2022-08-21T07:26:58;2.87;;;2.03;;
1360;SDS011;674;45.552;-122.600;2022-08-21T07:29:26;2.50;;;2.07;;
1360;SDS011;674;45.552;-122.600;2022-08-21T07:31:54;2.60;;;2.40;;
1360;SDS011;674;45.552;-122.600;2022-08-21T07:34:23;2.80;;;2.50;;
1360;SDS011;674;45.552;-122.600;2022-08-21T07:36:51;3.20;;;2.50;;
1360;SDS011;674;45.552;-122.600;2022-08-21T07:39:20;2.43;;;1.70;;
1360;SDS011;674;45.552;-122.600;2022-08-21T07:41:49;2.50;;;2.10;;
1360;SDS011;674;45.552;-122.600;2022-08-21T07:44:17;2.50;;;2.00;;
1360;SDS011;674;45.552;-122.600;2022-08-21T07:46:46;2.70;;;2.27;;
1360;SDS011;674;45.552;-122.600;2022-08-21T07:49:14;3.07;;;2.13;;
1360;SDS011;674;45.552;-122.600;2022-08-21T07:51:42;2.80;;;2.07;;
1360;SDS011;674;45.552;-122.600;2022-08-21T07:54:11;2.60;;;2.27;;
1360;SDS011;674;45.552;-122.600;2022-08-21T07:56:42;2.60;;;1.97;;
1360;SDS011;674;45.552;-122.600;2022-08-21T07:59:11;3.90;;;2.03;;
1360;SDS011;674;45.552;-122.600;2022-08-21T08:01:39;2.50;;;2.30;;
1360;SDS011;674;45.552;-122.600;2022-08-21T08:04:08;2.20;;;2.00;;
1360;SDS011;674;45.552;-122.600;2022-08-21T08:06:37;2.50;;;2.30;;
1360;SDS011;674;45.552;-122.600;2022-08-21T08:09:05;3.83;;;2.47;;
1360;SDS011;674;45.552;-122.600;2022-08-21T08:11:33;3.60;;;1.90;;
1360;SDS011;674;45.552;-122.600;2022-08-21T08:14:04;2.77;;;2.20;;
1360;SDS011;674;45.552;-122.600;2022-08-21T08:16:32;2.80;;;2.30;;
1360;SDS011;674;45.552;-122.600;2022-08-21T08:19:01;2.73;;;2.40;;
1360;SDS011;674;45.552;-122.600;2022-08-21T08:21:30;3.37;;;2.17;;
1360;SDS011;674;45.552;-122.600;2022-08-21T08:24:00;3.20;;;2.20;;
1360;SDS011;674;45.552;-122.600;2022-08-21T08:26:45;3.10;;;2.63;;
1360;SDS011;674;45.552;-122.600;2022-08-21T08:29:19;3.17;;;2.33;;
1360;SDS011;674;45.552;-122.600;2022-08-21T08:31:49;3.37;;;2.57;;
1360;SDS011;674;45.552;-122.600;2022-08-21T08:34:18;2.70;;;2.10;;
1360;SDS011;674;45.552;-122.600;2022-08-21T08:36:51;2.10;;;1.90;;
1360;SDS011;674;45.552;-122.600;2022-08-21T08:39:22;2.83;;;2.37;;
1360;SDS011;674;45.552;-122.600;2022-08-21T08:41:57;3.10;;;2.47;;
1360;SDS011;674;45.552;-122.600;2022-08-21T08:44:30;2.70;;;2.20;;
1360;SDS011;674;45.552;-122.600;2022-08-21T08:46:58;4.30;;;2.70;;
1360;SDS011;674;45.552;-122.600;2022-08-21T08:49:34;2.43;;;2.07;;
1360;SDS011;674;45.552;-122.600;2022-08-21T08:52:18;2.50;;;2.13;;
1360;SDS011;674;45.552;-122.600;2022-08-21T08:55:09;3.67;;;2.40;;
1360;SDS011;674;45.552;-122.600;2022-08-21T08:57:43;2.80;;;2.30;;
1360;SDS011;674;45.552;-122.600;2022-08-21T09:00:17;3.50;;;2.43;;
1360;SDS011;674;45.552;-122.600;2022-08-21T09:02:47;2.60;;;2.40;;
1360;SDS011;674;45.552;-122.600;2022-08-21T09:05:26;2.90;;;2.50;;
1360;SDS011;674;45.552;-122.600;2022-08-21T09:21:40;4.40;;;2.53;;
1360;SDS011;674;45.552;-122.600;2022-08-21T09:24:18;4.50;;;3.10;;
1360;SDS011;674;45.552;-122.600;2022-08-21T09:27:07;3.53;;;2.80;;
1360;SDS011;674;45.552;-122.600;2022-08-21T09:29:42;3.70;;;3.30;;
1360;SDS011;674;45.552;-122.600;2022-08-21T09:32:16;3.00;;;2.70;;
1360;SDS011;674;45.552;-122.600;2022-08-21T09:35:07;3.80;;;2.80;;
1360;SDS011;674;45.552;-122.600;2022-08-21T09:45:40;5.37;;;3.20;;
1360;SDS011;674;45.552;-122.600;2022-08-21T09:48:14;3.30;;;3.00;;
1360;SDS011;674;45.552;-122.600;2022-08-21T09:50:46;3.90;;;3.23;;
1360;SDS011;674;45.552;-122.600;2022-08-21T09:53:22;3.50;;;2.83;;
1360;SDS011;674;45.552;-122.600;2022-08-21T09:56:03;4.07;;;3.67;;
1360;SDS011;674;45.552;-122.600;2022-08-21T09:59:11;4.53;;;3.70;;
1360;SDS011;674;45.552;-122.600;2022-08-21T10:01:42;4.77;;;4.17;;
1360;SDS011;674;45.552;-122.600;2022-08-21T10:04:13;3.57;;;3.10;;
1360;SDS011;674;45.552;-122.600;2022-08-21T10:06:42;3.80;;;3.13;;
1360;SDS011;674;45.552;-122.600;2022-08-21T10:09:12;4.00;;;3.60;;
1360;SDS011;674;45.552;-122.600;2022-08-21T10:11:58;4.83;;;4.30;;
1360;SDS011;674;45.552;-122.600;2022-08-21T10:14:52;3.70;;;3.30;;
1360;SDS011;674;45.552;-122.600;2022-08-21T10:18:07;6.00;;;3.63;;
1360;SDS011;674;45.552;-122.600;2022-08-21T10:20:42;6.20;;;3.83;;
1360;SDS011;674;45.552;-122.600;2022-08-21T10:26:51;3.83;;;3.53;;
1360;SDS011;674;45.552;-122.600;2022-08-21T10:35:29;4.87;;;3.83;;
1360;SDS011;674;45.552;-122.600;2022-08-21T10:47:13;4.83;;;4.37;;
1360;SDS011;674;45.552;-122.600;2022-08-21T10:58:31;5.73;;;5.23;;
1360;SDS011;674;45.552;-122.600;2022-08-21T11:01:09;5.03;;;4.40;;
1360;SDS011;674;45.552;-122.600;2022-08-21T11:03:50;5.67;;;3.60;;
1360;SDS011;674;45.552;-122.600;2022-08-21T11:06:25;5.20;;;4.60;;
1360;SDS011;674;45.552;-122.600;2022-08-21T11:09:10;7.27;;;4.10;;
1360;SDS011;674;45.552;-122.600;2022-08-21T11:11:41;5.40;;;4.90;;
1360;SDS011;674;45.552;-122.600;2022-08-21T11:17:16;4.60;;;4.17;;
1360;SDS011;674;45.552;-122.600;2022-08-21T11:19:54;5.17;;;4.67;;
1360;SDS011;674;45.552;-122.600;2022-08-21T11:23:03;5.00;;;4.50;;
1360;SDS011;674;45.552;-122.600;2022-08-21T11:25:58;4.87;;;4.37;;
1360;SDS011;674;45.552;-122.600;2022-08-21T11:28:54;5.47;;;4.17;;
1360;SDS011;674;45.552;-122.600;2022-08-21T11:37:17;4.97;;;4.47;;
1360;SDS011;674;45.552;-122.600;2022-08-21T11:45:18;4.80;;;4.27;;
1360;SDS011;674;45.552;-122.600;2022-08-21T11:48:13;4.30;;;3.90;;
1360;SDS011;674;45.552;-122.600;2022-08-21T11:50:57;5.43;;;4.83;;
1360;SDS011;674;45.552;-122.600;2022-08-21T11:53:36;6.60;;;5.30;;
1360;SDS011;674;45.552;-122.600;2022-08-21T11:56:28;7.37;;;6.00;;
1360;SDS011;674;45.552;-122.600;2022-08-21T11:59:13;6.57;;;5.10;;
1360;SDS011;674;45.552;-122.600;2022-08-21T12:01:50;7.87;;;6.30;;
1360;SDS011;674;45.552;-122.600;2022-08-21T12:04:27;4.90;;;4.40;;
1360;SDS011;674;45.552;-122.600;2022-08-21T12:07:37;5.60;;;4.50;;
1360;SDS011;674;45.552;-122.600;2022-08-21T12:10:00;5.60;;;4.73;;
1360;SDS011;674;45.552;-122.600;2022-08-21T12:12:33;4.70;;;4.17;;
1360;SDS011;674;45.552;-122.600;2022-08-21T12:17:55;4.97;;;4.47;;
1360;SDS011;674;45.552;-122.600;2022-08-21T12:23:47;4.57;;;4.17;;
1360;SDS011;674;45.552;-122.600;2022-08-21T12:29:04;8.23;;;5.70;;
1360;SDS011;674;45.552;-122.600;2022-08-21T12:31:58;8.10;;;5.30;;
1360;SDS011;674;45.552;-122.600;2022-08-21T12:34:34;5.83;;;4.63;;
1360;SDS011;674;45.552;-122.600;2022-08-21T12:37:15;4.20;;;3.80;;
1360;SDS011;674;45.552;-122.600;2022-08-21T12:39:49;5.20;;;4.70;;
1360;SDS011;674;45.552;-122.600;2022-08-21T12:42:22;6.80;;;5.50;;
1360;SDS011;674;45.552;-122.600;2022-08-21T12:45:02;4.80;;;4.00;;
1360;SDS011;674;45.552;-122.600;2022-08-21T12:50:29;5.30;;;4.80;;
1360;SDS011;674;45.552;-122.600;2022-08-21T12:53:30;5.10;;;4.60;;
1360;SDS011;674;45.552;-122.600;2022-08-21T12:56:03;5.00;;;4.33;;
1360;SDS011;674;45.552;-122.600;2022-08-21T12:58:36;8.70;;;4.30;;
1360;SDS011;674;45.552;-122.600;2022-08-21T13:01:13;5.30;;;4.50;;
1360;SDS011;674;45.552;-122.600;2022-08-21T13:03:46;6.77;;;5.10;;
1360;SDS011;674;45.552;-122.600;2022-08-21T13:06:31;6.80;;;4.93;;
1360;SDS011;674;45.552;-122.600;2022-08-21T13:09:07;7.17;;;5.00;;
1360;SDS011;674;45.552;-122.600;2022-08-21T13:11:39;5.97;;;5.20;;
1360;SDS011;674;45.552;-122.600;2022-08-21T13:14:23;6.70;;;5.30;;
1360;SDS011;674;45.552;-122.600;2022-08-21T13:17:14;6.30;;;4.90;;
1360;SDS011;674;45.552;-122.600;2022-08-21T13:19:55;5.10;;;4.60;;
1360;SDS011;674;45.552;-122.600;2022-08-21T13:22:28;5.10;;;4.60;;
1360;SDS011;674;45.552;-122.600;2022-08-21T13:25:01;5.20;;;4.60;;
1360;SDS011;674;45.552;-122.600;2022-08-21T13:27:32;6.30;;;5.47;;
1360;SDS011;674;45.552;-122.600;2022-08-21T13:32:44;6.70;;;4.57;;
1360;SDS011;674;45.552;-122.600;2022-08-21T13:35:20;5.37;;;4.60;;
1360;SDS011;674;45.552;-122.600;2022-08-21T13:37:52;6.20;;;5.60;;
1360;SDS011;674;45.552;-122.600;2022-08-21T13:40:30;5.47;;;4.93;;
1360;SDS011;674;45.552;-122.600;2022-08-21T13:43:10;6.13;;;5.20;;
1360;SDS011;674;45.552;-122.600;2022-08-21T13:45:47;5.53;;;4.57;;
1360;SDS011;674;45.552;-122.600;2022-08-21T13:48:25;6.07;;;4.17;;
1360;SDS011;674;45.552;-122.600;2022-08-21T13:50:56;6.63;;;5.70;;
1360;SDS011;674;45.552;-122.600;2022-08-21T13:53:30;6.10;;;5.27;;
1360;SDS011;674;45.552;-122.600;2022-08-21T13:56:04;9.20;;;6.20;;
1360;SDS011;674;45.552;-122.600;2022-08-21T13:58:43;4.67;;;4.27;;
1360;SDS011;674;45.552;-122.600;2022-08-21T14:01:27;5.00;;;4.50;;
1360;SDS011;674;45.552;-122.600;2022-08-21T14:04:03;7.43;;;4.70;;
1360;SDS011;674;45.552;-122.600;2022-08-21T14:06:36;8.57;;;7.67;;
1360;SDS011;674;45.552;-122.600;2022-08-21T14:09:12;6.77;;;6.07;;
1360;SDS011;674;45.552;-122.600;2022-08-21T14:11:50;6.83;;;6.00;;
1360;SDS011;674;45.552;-122.600;2022-08-21T14:14:27;6.03;;;4.93;;
1360;SDS011;674;45.552;-122.600;2022-08-21T14:17:02;5.70;;;5.20;;
1360;SDS011;674;45.552;-122.600;2022-08-21T14:19:50;6.30;;;5.70;;
1360;SDS011;674;45.552;-122.600;2022-08-21T14:22:38;5.53;;;4.93;;
1360;SDS011;674;45.552;-122.600;2022-08-21T14:25:12;7.10;;;6.10;;
1360;SDS011;674;45.552;-122.600;2022-08-21T14:27:51;8.70;;;6.07;;
1360;SDS011;674;45.552;-122.600;2022-08-21T14:32:59;8.80;;;7.80;;
1360;SDS011;674;45.552;-122.600;2022-08-21T14:35:28;8.17;;;7.20;;
1360;SDS011;674;45.552;-122.600;2022-08-21T14:37:57;8.40;;;7.60;;
1360;SDS011;674;45.552;-122.600;2022-08-21T14:40:26;9.50;;;8.47;;
1360;SDS011;674;45.552;-122.600;2022-08-21T14:42:55;10.50;;;8.87;;
1360;SDS011;674;45.552;-122.600;2022-08-21T14:45:26;9.93;;;8.60;;
1360;SDS011;674;45.552;-122.600;2022-08-21T14:47:56;10.50;;;9.00;;
1360;SDS011;674;45.552;-122.600;2022-08-21T14:50:26;11.97;;;10.77;;
1360;SDS011;674;45.552;-122.600;2022-08-21T14:52:54;16.77;;;12.50;;
1360;SDS011;674;45.552;-122.600;2022-08-21T14:55:23;12.37;;;11.23;;
1360;SDS011;674;45.552;-122.600;2022-08-21T14:57:53;11.70;;;10.50;;
1360;SDS011;674;45.552;-122.600;2022-08-21T15:00:24;11.53;;;10.37;;
1360;SDS011;674;45.552;-122.600;2022-08-21T15:03:02;13.33;;;11.93;;
1360;SDS011;674;45.552;-122.600;2022-08-21T15:05:31;13.53;;;10.20;;
1360;SDS011;674;45.552;-122.600;2022-08-21T15:08:00;13.30;;;11.90;;
1360;SDS011;674;45.552;-122.600;2022-08-21T15:10:30;11.07;;;9.90;;
1360;SDS011;674;45.552;-122.600;2022-08-21T15:13:00;10.43;;;9.27;;
1360;SDS011;674;45.552;-122.600;2022-08-21T15:15:30;9.77;;;8.97;;
1360;SDS011;674;45.552;-122.600;2022-08-21T15:18:02;9.90;;;8.90;;
1360;SDS011;674;45.552;-122.600;2022-08-21T15:20:31;11.00;;;10.00;;
1360;SDS011;674;45.552;-122.600;2022-08-21T15:23:00;10.70;;;9.60;;
1360;SDS011;674;45.552;-122.600;2022-08-21T15:25:28;12.30;;;11.00;;
1360;SDS011;674;45.552;-122.600;2022-08-21T15:27:58;11.93;;;10.73;;
1360;SDS011;674;45.552;-122.600;2022-08-21T15:30:27;9.20;;;8.30;;
1360;SDS011;674;45.552;-122.600;2022-08-21T15:32:57;13.43;;;11.63;;
1360;SDS011;674;45.552;-122.600;2022-08-21T15:35:26;10.93;;;9.93;;
1360;SDS011;674;45.552;-122.600;2022-08-21T15:37:54;11.80;;;10.70;;
1360;SDS011;674;45.552;-122.600;2022-08-21T15:40:23;12.10;;;10.90;;
1360;SDS011;674;45.552;-122.600;2022-08-21T15:42:55;9.97;;;8.97;;
1360;SDS011;674;45.552;-122.600;2022-08-21T15:45:27;10.80;;;9.80;;
1360;SDS011;674;45.552;-122.600;2022-08-21T15:47:56;12.00;;;11.00;;
1360;SDS011;674;45.552;-122.600;2022-08-21T15:50:26;9.03;;;8.13;;
1360;SDS011;674;45.552;-122.600;2022-08-21T15:52:59;12.50;;;8.83;;
1360;SDS011;674;45.552;-122.600;2022-08-21T15:55:27;9.37;;;8.50;;
1360;SDS011;674;45.552;-122.600;2022-08-21T15:57:56;9.93;;;8.93;;
1360;SDS011;674;45.552;-122.600;2022-08-21T16:00:29;10.97;;;9.63;;
1360;SDS011;674;45.552;-122.600;2022-08-21T16:03:00;9.63;;;8.73;;
1360;SDS011;674;45.552;-122.600;2022-08-21T16:05:33;7.83;;;7.13;;
1360;SDS011;674;45.552;-122.600;2022-08-21T16:08:02;8.70;;;7.80;;
1360;SDS011;674;45.552;-122.600;2022-08-21T16:10:31;9.30;;;7.83;;
1360;SDS011;674;45.552;-122.600;2022-08-21T16:13:04;6.27;;;5.67;;
1360;SDS011;674;45.552;-122.600;2022-08-21T16:15:38;7.10;;;6.40;;
1360;SDS011;674;45.552;-122.600;2022-08-21T16:18:07;7.10;;;6.10;;
1360;SDS011;674;45.552;-122.600;2022-08-21T16:20:36;5.10;;;4.70;;
1360;SDS011;674;45.552;-122.600;2022-08-21T16:23:04;5.13;;;3.63;;
1360;SDS011;674;45.552;-122.600;2022-08-21T16:25:34;7.20;;;6.50;;
1360;SDS011;674;45.552;-122.600;2022-08-21T16:28:07;4.90;;;4.50;;
1360;SDS011;674;45.552;-122.600;2022-08-21T16:30:39;4.40;;;4.00;;
1360;SDS011;674;45.552;-122.600;2022-08-21T16:33:11;3.67;;;3.37;;
1360;SDS011;674;45.552;-122.600;2022-08-21T16:35:48;5.13;;;4.73;;
1360;SDS011;674;45.552;-122.600;2022-08-21T16:38:16;6.37;;;5.33;;